sensor_id;sensor_type;location;lat;lon;timestamp;P1;durP1;ratioP1;P2;durP2;ratioP2
43809;SDS011;29440;48.208;11.162;2023-07-16T00:02:02;9.82;;;5.35;;
43809;SDS011;29440;48.208;11.162;2023-07-16T00:04:28;7.50;;;5.38;;
43809;SDS011;29440;48.208;11.162;2023-07-16T00:06:54;9.55;;;5.40;;
43809;SDS011;29440;48.208;11.162;2023-07-16T00:09:20;7.80;;;5.38;;
43809;SDS011;29440;48.208;11.162;2023-07-16T00:11:45;9.00;;;5.13;;
43809;SDS011;29440;48.208;11.162;2023-07-16T00:14:11;7.30;;;5.30;;
43809;SDS011;29440;48.208;11.162;2023-07-16T00:16:37;8.23;;;5.32;;
43809;SDS011;29440;48.208;11.162;2023-07-16T00:19:02;6.60;;;4.72;;
43809;SDS011;29440;48.208;11.162;2023-07-16T00:21:28;10.75;;;4.90;;
43809;SDS011;29440;48.208;11.162;2023-07-16T00:23:54;10.95;;;5.22;;
43809;SDS011;29440;48.208;11.162;2023-07-16T00:26:20;8.30;;;5.38;;
43809;SDS011;29440;48.208;11.162;2023-07-16T00:28:46;9.77;;;5.05;;
43809;SDS011;29440;48.208;11.162;2023-07-16T00:31:12;11.30;;;4.55;;
43809;SDS011;29440;48.208;11.162;2023-07-16T00:33:37;6.47;;;5.32;;
43809;SDS011;29440;48.208;11.162;2023-07-16T00:36:03;6.28;;;4.82;;
43809;SDS011;29440;48.208;11.162;2023-07-16T00:38:29;8.10;;;5.20;;
43809;SDS011;29440;48.208;11.162;2023-07-16T00:40:55;12.90;;;5.68;;
43809;SDS011;29440;48.208;11.162;2023-07-16T00:43:21;18.42;;;6.57;;
43809;SDS011;29440;48.208;11.162;2023-07-16T00:45:47;10.63;;;5.70;;
43809;SDS011;29440;48.208;11.162;2023-07-16T00:48:12;7.85;;;5.30;;
43809;SDS011;29440;48.208;11.162;2023-07-16T00:50:38;11.02;;;5.53;;
43809;SDS011;29440;48.208;11.162;2023-07-16T00:53:05;8.48;;;5.63;;
43809;SDS011;29440;48.208;11.162;2023-07-16T00:55:32;8.35;;;4.82;;
43809;SDS011;29440;48.208;11.162;2023-07-16T00:58:03;13.93;;;5.22;;
43809;SDS011;29440;48.208;11.162;2023-07-16T01:00:31;12.32;;;5.60;;
43809;SDS011;29440;48.208;11.162;2023-07-16T01:02:57;7.85;;;5.53;;
43809;SDS011;29440;48.208;11.162;2023-07-16T01:05:22;10.43;;;5.22;;
43809;SDS011;29440;48.208;11.162;2023-07-16T01:07:54;10.05;;;5.47;;
43809;SDS011;29440;48.208;11.162;2023-07-16T01:10:24;10.77;;;6.15;;
43809;SDS011;29440;48.208;11.162;2023-07-16T01:12:53;11.07;;;6.05;;
43809;SDS011;29440;48.208;11.162;2023-07-16T01:15:20;6.22;;;5.00;;
43809;SDS011;29440;48.208;11.162;2023-07-16T01:17:46;9.20;;;5.38;;
43809;SDS011;29440;48.208;11.162;2023-07-16T01:20:11;8.98;;;5.47;;
43809;SDS011;29440;48.208;11.162;2023-07-16T01:22:48;7.30;;;5.75;;
43809;SDS011;29440;48.208;11.162;2023-07-16T01:28:27;15.10;;;5.30;;
43809;SDS011;29440;48.208;11.162;2023-07-16T01:31:13;10.68;;;4.80;;
43809;SDS011;29440;48.208;11.162;2023-07-16T01:33:40;10.82;;;4.68;;
43809;SDS011;29440;48.208;11.162;2023-07-16T01:36:07;8.80;;;4.93;;
43809;SDS011;29440;48.208;11.162;2023-07-16T01:38:33;8.18;;;5.15;;
43809;SDS011;29440;48.208;11.162;2023-07-16T01:41:00;8.75;;;4.95;;
43809;SDS011;29440;48.208;11.162;2023-07-16T01:43:26;8.32;;;4.78;;
43809;SDS011;29440;48.208;11.162;2023-07-16T01:45:52;6.57;;;4.70;;
43809;SDS011;29440;48.208;11.162;2023-07-16T01:48:31;7.68;;;4.68;;
43809;SDS011;29440;48.208;11.162;2023-07-16T01:50:58;5.22;;;4.18;;
43809;SDS011;29440;48.208;11.162;2023-07-16T01:53:24;9.35;;;4.68;;
43809;SDS011;29440;48.208;11.162;2023-07-16T01:55:49;6.78;;;4.30;;
43809;SDS011;29440;48.208;11.162;2023-07-16T01:58:15;6.95;;;4.57;;
43809;SDS011;29440;48.208;11.162;2023-07-16T02:00:40;5.80;;;4.00;;
43809;SDS011;29440;48.208;11.162;2023-07-16T02:03:06;9.00;;;4.55;;
43809;SDS011;29440;48.208;11.162;2023-07-16T02:05:32;7.13;;;4.68;;
43809;SDS011;29440;48.208;11.162;2023-07-16T02:07:57;11.63;;;4.25;;
43809;SDS011;29440;48.208;11.162;2023-07-16T02:10:23;7.22;;;4.40;;
43809;SDS011;29440;48.208;11.162;2023-07-16T02:12:48;7.55;;;4.40;;
43809;SDS011;29440;48.208;11.162;2023-07-16T02:15:14;9.55;;;4.45;;
43809;SDS011;29440;48.208;11.162;2023-07-16T02:17:40;8.55;;;4.22;;
43809;SDS011;29440;48.208;11.162;2023-07-16T02:20:06;7.45;;;3.50;;
43809;SDS011;29440;48.208;11.162;2023-07-16T02:22:33;7.00;;;3.30;;
43809;SDS011;29440;48.208;11.162;2023-07-16T02:25:00;5.85;;;3.33;;
43809;SDS011;29440;48.208;11.162;2023-07-16T02:27:26;4.47;;;3.38;;
43809;SDS011;29440;48.208;11.162;2023-07-16T02:29:51;5.78;;;3.03;;
43809;SDS011;29440;48.208;11.162;2023-07-16T02:32:17;3.65;;;3.30;;
43809;SDS011;29440;48.208;11.162;2023-07-16T02:34:42;4.63;;;3.13;;
43809;SDS011;29440;48.208;11.162;2023-07-16T02:37:08;3.60;;;2.72;;
43809;SDS011;29440;48.208;11.162;2023-07-16T02:39:33;3.97;;;2.63;;
43809;SDS011;29440;48.208;11.162;2023-07-16T02:41:59;4.03;;;3.10;;
43809;SDS011;29440;48.208;11.162;2023-07-16T02:44:24;7.75;;;3.97;;
43809;SDS011;29440;48.208;11.162;2023-07-16T02:46:50;4.00;;;3.30;;
43809;SDS011;29440;48.208;11.162;2023-07-16T02:49:16;6.53;;;2.95;;
43809;SDS011;29440;48.208;11.162;2023-07-16T02:51:41;7.28;;;3.53;;
43809;SDS011;29440;48.208;11.162;2023-07-16T02:54:07;5.18;;;3.28;;
43809;SDS011;29440;48.208;11.162;2023-07-16T02:56:32;4.65;;;3.95;;
43809;SDS011;29440;48.208;11.162;2023-07-16T02:58:58;6.68;;;3.50;;
43809;SDS011;29440;48.208;11.162;2023-07-16T03:01:24;5.70;;;3.90;;
43809;SDS011;29440;48.208;11.162;2023-07-16T03:03:49;6.47;;;3.80;;
43809;SDS011;29440;48.208;11.162;2023-07-16T03:06:15;5.13;;;3.90;;
43809;SDS011;29440;48.208;11.162;2023-07-16T03:08:40;6.13;;;3.90;;
43809;SDS011;29440;48.208;11.162;2023-07-16T03:11:06;5.55;;;3.65;;
43809;SDS011;29440;48.208;11.162;2023-07-16T03:13:31;6.57;;;4.18;;
43809;SDS011;29440;48.208;11.162;2023-07-16T03:15:57;7.80;;;3.78;;
43809;SDS011;29440;48.208;11.162;2023-07-16T03:18:27;3.65;;;3.05;;
43809;SDS011;29440;48.208;11.162;2023-07-16T03:20:53;6.10;;;2.72;;
43809;SDS011;29440;48.208;11.162;2023-07-16T03:23:19;2.28;;;1.52;;
43809;SDS011;29440;48.208;11.162;2023-07-16T03:25:44;2.83;;;1.83;;
43809;SDS011;29440;48.208;11.162;2023-07-16T03:28:10;2.50;;;1.38;;
43809;SDS011;29440;48.208;11.162;2023-07-16T03:30:35;4.80;;;1.35;;
43809;SDS011;29440;48.208;11.162;2023-07-16T03:33:02;3.20;;;1.58;;
43809;SDS011;29440;48.208;11.162;2023-07-16T03:35:29;3.22;;;1.50;;
43809;SDS011;29440;48.208;11.162;2023-07-16T03:37:55;3.65;;;1.30;;
43809;SDS011;29440;48.208;11.162;2023-07-16T03:40:24;2.33;;;1.17;;
43809;SDS011;29440;48.208;11.162;2023-07-16T03:42:51;6.35;;;1.73;;
43809;SDS011;29440;48.208;11.162;2023-07-16T03:45:16;2.78;;;1.33;;
43809;SDS011;29440;48.208;11.162;2023-07-16T03:47:42;2.00;;;1.30;;
43809;SDS011;29440;48.208;11.162;2023-07-16T03:52:58;4.32;;;1.52;;
43809;SDS011;29440;48.208;11.162;2023-07-16T03:55:24;3.80;;;1.10;;
43809;SDS011;29440;48.208;11.162;2023-07-16T03:57:50;2.60;;;1.10;;
43809;SDS011;29440;48.208;11.162;2023-07-16T04:00:16;2.17;;;1.15;;
43809;SDS011;29440;48.208;11.162;2023-07-16T04:02:41;3.50;;;1.30;;
43809;SDS011;29440;48.208;11.162;2023-07-16T04:05:07;1.98;;;1.17;;
43809;SDS011;29440;48.208;11.162;2023-07-16T04:07:33;3.40;;;1.40;;
43809;SDS011;29440;48.208;11.162;2023-07-16T04:09:58;2.17;;;1.05;;
43809;SDS011;29440;48.208;11.162;2023-07-16T04:12:24;2.15;;;1.00;;
43809;SDS011;29440;48.208;11.162;2023-07-16T04:14:51;2.38;;;1.35;;
43809;SDS011;29440;48.208;11.162;2023-07-16T04:17:21;2.58;;;1.25;;
43809;SDS011;29440;48.208;11.162;2023-07-16T04:19:46;3.63;;;1.65;;
43809;SDS011;29440;48.208;11.162;2023-07-16T04:22:12;1.52;;;1.05;;
43809;SDS011;29440;48.208;11.162;2023-07-16T04:24:37;3.20;;;1.10;;
43809;SDS011;29440;48.208;11.162;2023-07-16T04:27:03;3.97;;;1.02;;
43809;SDS011;29440;48.208;11.162;2023-07-16T04:29:29;2.17;;;1.00;;
43809;SDS011;29440;48.208;11.162;2023-07-16T04:31:54;2.70;;;1.20;;
43809;SDS011;29440;48.208;11.162;2023-07-16T04:34:20;3.25;;;1.15;;
43809;SDS011;29440;48.208;11.162;2023-07-16T04:36:45;4.97;;;1.40;;
43809;SDS011;29440;48.208;11.162;2023-07-16T04:39:11;3.28;;;1.42;;
43809;SDS011;29440;48.208;11.162;2023-07-16T04:41:37;2.30;;;1.33;;
43809;SDS011;29440;48.208;11.162;2023-07-16T04:44:02;3.03;;;1.10;;
43809;SDS011;29440;48.208;11.162;2023-07-16T04:46:28;2.45;;;1.40;;
43809;SDS011;29440;48.208;11.162;2023-07-16T04:48:55;3.45;;;1.38;;
43809;SDS011;29440;48.208;11.162;2023-07-16T04:51:21;3.00;;;1.33;;
43809;SDS011;29440;48.208;11.162;2023-07-16T04:53:46;4.55;;;2.00;;
43809;SDS011;29440;48.208;11.162;2023-07-16T04:56:12;3.63;;;1.85;;
43809;SDS011;29440;48.208;11.162;2023-07-16T04:58:38;6.38;;;2.40;;
43809;SDS011;29440;48.208;11.162;2023-07-16T05:01:04;4.47;;;2.60;;
43809;SDS011;29440;48.208;11.162;2023-07-16T05:03:29;3.67;;;2.30;;
43809;SDS011;29440;48.208;11.162;2023-07-16T05:05:55;3.92;;;2.22;;
43809;SDS011;29440;48.208;11.162;2023-07-16T05:08:21;4.03;;;2.35;;
43809;SDS011;29440;48.208;11.162;2023-07-16T05:10:46;3.03;;;2.20;;
43809;SDS011;29440;48.208;11.162;2023-07-16T05:13:12;3.45;;;2.15;;
43809;SDS011;29440;48.208;11.162;2023-07-16T05:15:37;5.72;;;2.75;;
43809;SDS011;29440;48.208;11.162;2023-07-16T05:18:03;4.00;;;2.22;;
43809;SDS011;29440;48.208;11.162;2023-07-16T05:20:29;4.65;;;2.30;;
43809;SDS011;29440;48.208;11.162;2023-07-16T05:22:54;3.55;;;1.73;;
43809;SDS011;29440;48.208;11.162;2023-07-16T05:25:20;4.10;;;1.88;;
43809;SDS011;29440;48.208;11.162;2023-07-16T05:27:46;3.83;;;2.53;;
43809;SDS011;29440;48.208;11.162;2023-07-16T05:30:11;2.45;;;1.58;;
43809;SDS011;29440;48.208;11.162;2023-07-16T05:32:37;3.42;;;2.08;;
43809;SDS011;29440;48.208;11.162;2023-07-16T05:35:02;3.28;;;1.80;;
43809;SDS011;29440;48.208;11.162;2023-07-16T05:37:28;4.05;;;1.95;;
43809;SDS011;29440;48.208;11.162;2023-07-16T05:39:54;3.10;;;1.60;;
43809;SDS011;29440;48.208;11.162;2023-07-16T05:42:19;4.28;;;1.65;;
43809;SDS011;29440;48.208;11.162;2023-07-16T05:44:47;5.50;;;1.85;;
43809;SDS011;29440;48.208;11.162;2023-07-16T05:47:12;4.70;;;1.90;;
43809;SDS011;29440;48.208;11.162;2023-07-16T05:49:38;2.65;;;1.40;;
43809;SDS011;29440;48.208;11.162;2023-07-16T05:52:04;2.08;;;1.50;;
43809;SDS011;29440;48.208;11.162;2023-07-16T05:54:30;2.88;;;1.52;;
43809;SDS011;29440;48.208;11.162;2023-07-16T05:56:56;3.03;;;1.27;;
43809;SDS011;29440;48.208;11.162;2023-07-16T05:59:22;6.78;;;1.70;;
43809;SDS011;29440;48.208;11.162;2023-07-16T06:01:48;3.42;;;1.40;;
43809;SDS011;29440;48.208;11.162;2023-07-16T06:04:13;3.10;;;1.27;;
43809;SDS011;29440;48.208;11.162;2023-07-16T06:06:39;1.42;;;1.02;;
43809;SDS011;29440;48.208;11.162;2023-07-16T06:09:04;1.50;;;0.90;;
43809;SDS011;29440;48.208;11.162;2023-07-16T06:11:30;4.35;;;1.13;;
43809;SDS011;29440;48.208;11.162;2023-07-16T06:13:55;4.15;;;0.90;;
43809;SDS011;29440;48.208;11.162;2023-07-16T06:16:21;1.98;;;0.95;;
43809;SDS011;29440;48.208;11.162;2023-07-16T06:18:47;2.40;;;1.00;;
43809;SDS011;29440;48.208;11.162;2023-07-16T06:21:12;2.13;;;1.00;;
43809;SDS011;29440;48.208;11.162;2023-07-16T06:23:38;3.42;;;1.05;;
43809;SDS011;29440;48.208;11.162;2023-07-16T06:26:03;2.65;;;1.15;;
43809;SDS011;29440;48.208;11.162;2023-07-16T06:28:29;2.70;;;0.95;;
43809;SDS011;29440;48.208;11.162;2023-07-16T06:30:55;2.50;;;1.15;;
43809;SDS011;29440;48.208;11.162;2023-07-16T06:33:21;1.42;;;1.00;;
43809;SDS011;29440;48.208;11.162;2023-07-16T06:35:47;2.67;;;1.20;;
43809;SDS011;29440;48.208;11.162;2023-07-16T06:38:16;5.45;;;1.58;;
43809;SDS011;29440;48.208;11.162;2023-07-16T06:40:48;2.97;;;1.10;;
43809;SDS011;29440;48.208;11.162;2023-07-16T06:43:15;2.75;;;1.17;;
43809;SDS011;29440;48.208;11.162;2023-07-16T06:45:41;3.22;;;1.10;;
43809;SDS011;29440;48.208;11.162;2023-07-16T06:48:07;3.28;;;1.23;;
43809;SDS011;29440;48.208;11.162;2023-07-16T06:50:33;3.05;;;1.15;;
43809;SDS011;29440;48.208;11.162;2023-07-16T06:52:58;3.05;;;1.30;;
43809;SDS011;29440;48.208;11.162;2023-07-16T06:55:24;3.20;;;1.20;;
43809;SDS011;29440;48.208;11.162;2023-07-16T06:57:49;3.55;;;0.93;;
43809;SDS011;29440;48.208;11.162;2023-07-16T07:00:15;3.40;;;1.20;;
43809;SDS011;29440;48.208;11.162;2023-07-16T07:02:41;4.38;;;1.10;;
43809;SDS011;29440;48.208;11.162;2023-07-16T07:05:07;3.00;;;1.38;;
43809;SDS011;29440;48.208;11.162;2023-07-16T07:07:32;2.40;;;1.17;;
43809;SDS011;29440;48.208;11.162;2023-07-16T07:09:58;2.92;;;1.38;;
43809;SDS011;29440;48.208;11.162;2023-07-16T07:12:33;3.83;;;1.10;;
43809;SDS011;29440;48.208;11.162;2023-07-16T07:15:05;1.92;;;1.23;;
43809;SDS011;29440;48.208;11.162;2023-07-16T07:17:34;3.80;;;1.30;;
43809;SDS011;29440;48.208;11.162;2023-07-16T07:20:00;4.57;;;1.25;;
43809;SDS011;29440;48.208;11.162;2023-07-16T07:22:26;4.70;;;1.05;;
43809;SDS011;29440;48.208;11.162;2023-07-16T07:24:52;3.33;;;1.48;;
43809;SDS011;29440;48.208;11.162;2023-07-16T07:27:17;1.70;;;1.00;;
43809;SDS011;29440;48.208;11.162;2023-07-16T07:29:43;3.30;;;1.17;;
43809;SDS011;29440;48.208;11.162;2023-07-16T07:32:08;2.15;;;1.30;;
43809;SDS011;29440;48.208;11.162;2023-07-16T07:34:34;3.80;;;1.48;;
43809;SDS011;29440;48.208;11.162;2023-07-16T07:37:00;3.03;;;1.20;;
43809;SDS011;29440;48.208;11.162;2023-07-16T07:39:25;3.08;;;1.17;;
43809;SDS011;29440;48.208;11.162;2023-07-16T07:41:51;2.90;;;1.00;;
43809;SDS011;29440;48.208;11.162;2023-07-16T07:44:16;2.00;;;0.70;;
43809;SDS011;29440;48.208;11.162;2023-07-16T07:46:42;1.00;;;0.60;;
43809;SDS011;29440;48.208;11.162;2023-07-16T07:49:07;1.38;;;0.90;;
43809;SDS011;29440;48.208;11.162;2023-07-16T07:51:33;2.22;;;0.82;;
43809;SDS011;29440;48.208;11.162;2023-07-16T07:53:58;4.55;;;0.80;;
43809;SDS011;29440;48.208;11.162;2023-07-16T07:56:24;1.65;;;0.82;;
43809;SDS011;29440;48.208;11.162;2023-07-16T07:58:50;3.80;;;1.10;;
43809;SDS011;29440;48.208;11.162;2023-07-16T08:01:15;3.13;;;1.13;;
43809;SDS011;29440;48.208;11.162;2023-07-16T08:03:41;2.03;;;1.10;;
43809;SDS011;29440;48.208;11.162;2023-07-16T08:06:06;2.60;;;1.17;;
43809;SDS011;29440;48.208;11.162;2023-07-16T08:08:32;2.25;;;1.10;;
43809;SDS011;29440;48.208;11.162;2023-07-16T08:10:57;1.60;;;0.90;;
43809;SDS011;29440;48.208;11.162;2023-07-16T08:13:23;2.85;;;1.08;;
43809;SDS011;29440;48.208;11.162;2023-07-16T08:15:48;2.72;;;1.10;;
43809;SDS011;29440;48.208;11.162;2023-07-16T08:18:14;3.25;;;1.17;;
43809;SDS011;29440;48.208;11.162;2023-07-16T08:20:39;4.45;;;1.10;;
43809;SDS011;29440;48.208;11.162;2023-07-16T08:23:08;4.13;;;1.10;;
43809;SDS011;29440;48.208;11.162;2023-07-16T08:25:33;1.27;;;0.70;;
43809;SDS011;29440;48.208;11.162;2023-07-16T08:28:01;3.05;;;1.00;;
43809;SDS011;29440;48.208;11.162;2023-07-16T08:30:27;1.50;;;1.00;;
43809;SDS011;29440;48.208;11.162;2023-07-16T08:32:53;3.33;;;0.90;;
43809;SDS011;29440;48.208;11.162;2023-07-16T08:35:18;3.08;;;1.35;;
43809;SDS011;29440;48.208;11.162;2023-07-16T08:37:44;2.00;;;0.98;;
43809;SDS011;29440;48.208;11.162;2023-07-16T08:40:11;3.78;;;0.90;;
43809;SDS011;29440;48.208;11.162;2023-07-16T08:42:38;1.05;;;0.80;;
43809;SDS011;29440;48.208;11.162;2023-07-16T08:45:09;1.50;;;0.90;;
43809;SDS011;29440;48.208;11.162;2023-07-16T08:47:35;3.80;;;1.00;;
43809;SDS011;29440;48.208;11.162;2023-07-16T08:50:02;1.40;;;1.10;;
43809;SDS011;29440;48.208;11.162;2023-07-16T08:52:28;3.25;;;0.95;;
43809;SDS011;29440;48.208;11.162;2023-07-16T08:54:55;1.85;;;1.17;;
43809;SDS011;29440;48.208;11.162;2023-07-16T08:57:21;2.03;;;1.10;;
43809;SDS011;29440;48.208;11.162;2023-07-16T08:59:47;2.65;;;1.00;;
43809;SDS011;29440;48.208;11.162;2023-07-16T09:02:15;2.40;;;1.17;;
43809;SDS011;29440;48.208;11.162;2023-07-16T09:04:43;5.90;;;1.33;;
43809;SDS011;29440;48.208;11.162;2023-07-16T09:07:09;1.65;;;0.88;;
43809;SDS011;29440;48.208;11.162;2023-07-16T09:09:34;2.72;;;1.17;;
43809;SDS011;29440;48.208;11.162;2023-07-16T09:12:00;2.42;;;1.00;;
43809;SDS011;29440;48.208;11.162;2023-07-16T09:14:27;2.03;;;1.27;;
43809;SDS011;29440;48.208;11.162;2023-07-16T09:16:52;2.28;;;1.20;;
43809;SDS011;29440;48.208;11.162;2023-07-16T09:19:19;2.67;;;0.93;;
43809;SDS011;29440;48.208;11.162;2023-07-16T09:21:50;1.30;;;0.80;;
43809;SDS011;29440;48.208;11.162;2023-07-16T09:24:17;2.47;;;0.70;;
43809;SDS011;29440;48.208;11.162;2023-07-16T09:26:52;4.82;;;0.90;;
43809;SDS011;29440;48.208;11.162;2023-07-16T09:29:18;2.07;;;0.80;;
43809;SDS011;29440;48.208;11.162;2023-07-16T09:34:26;3.33;;;1.10;;
43809;SDS011;29440;48.208;11.162;2023-07-16T09:36:52;5.05;;;1.10;;
43809;SDS011;29440;48.208;11.162;2023-07-16T09:39:17;2.92;;;1.00;;
43809;SDS011;29440;48.208;11.162;2023-07-16T09:41:49;2.38;;;0.95;;
43809;SDS011;29440;48.208;11.162;2023-07-16T09:44:15;1.17;;;0.70;;
43809;SDS011;29440;48.208;11.162;2023-07-16T09:49:09;1.65;;;0.85;;
43809;SDS011;29440;48.208;11.162;2023-07-16T09:51:35;1.45;;;0.70;;
43809;SDS011;29440;48.208;11.162;2023-07-16T09:54:02;3.45;;;1.00;;
43809;SDS011;29440;48.208;11.162;2023-07-16T09:56:33;3.38;;;1.17;;
43809;SDS011;29440;48.208;11.162;2023-07-16T09:59:02;5.20;;;0.80;;
43809;SDS011;29440;48.208;11.162;2023-07-16T10:01:32;2.60;;;0.70;;
43809;SDS011;29440;48.208;11.162;2023-07-16T10:04:09;1.88;;;0.82;;
43809;SDS011;29440;48.208;11.162;2023-07-16T10:09:33;1.15;;;0.75;;
43809;SDS011;29440;48.208;11.162;2023-07-16T10:12:07;1.23;;;0.70;;
43809;SDS011;29440;48.208;11.162;2023-07-16T10:17:13;3.88;;;0.75;;
43809;SDS011;29440;48.208;11.162;2023-07-16T10:19:50;1.33;;;0.60;;
43809;SDS011;29440;48.208;11.162;2023-07-16T10:22:30;2.70;;;0.70;;
43809;SDS011;29440;48.208;11.162;2023-07-16T10:25:03;2.45;;;0.70;;
43809;SDS011;29440;48.208;11.162;2023-07-16T10:27:50;3.17;;;0.90;;
43809;SDS011;29440;48.208;11.162;2023-07-16T10:30:16;1.00;;;0.60;;
43809;SDS011;29440;48.208;11.162;2023-07-16T10:32:42;1.50;;;0.88;;
43809;SDS011;29440;48.208;11.162;2023-07-16T10:35:08;4.47;;;0.77;;
43809;SDS011;29440;48.208;11.162;2023-07-16T10:37:35;2.00;;;0.70;;
43809;SDS011;29440;48.208;11.162;2023-07-16T10:40:02;1.42;;;0.70;;
43809;SDS011;29440;48.208;11.162;2023-07-16T10:42:28;2.30;;;0.80;;
43809;SDS011;29440;48.208;11.162;2023-07-16T10:44:59;1.52;;;0.80;;
43809;SDS011;29440;48.208;11.162;2023-07-16T10:49:55;1.10;;;0.80;;
43809;SDS011;29440;48.208;11.162;2023-07-16T10:52:21;2.80;;;0.75;;
43809;SDS011;29440;48.208;11.162;2023-07-16T10:54:48;1.75;;;0.90;;
43809;SDS011;29440;48.208;11.162;2023-07-16T10:57:15;7.10;;;0.90;;
43809;SDS011;29440;48.208;11.162;2023-07-16T10:59:41;3.80;;;0.90;;
43809;SDS011;29440;48.208;11.162;2023-07-16T11:02:10;1.73;;;0.80;;
43809;SDS011;29440;48.208;11.162;2023-07-16T11:04:37;0.90;;;0.55;;
43809;SDS011;29440;48.208;11.162;2023-07-16T11:07:04;1.50;;;0.60;;
43809;SDS011;29440;48.208;11.162;2023-07-16T11:09:33;2.15;;;0.90;;
43809;SDS011;29440;48.208;11.162;2023-07-16T11:12:06;1.58;;;0.77;;
43809;SDS011;29440;48.208;11.162;2023-07-16T11:14:33;1.00;;;0.70;;
43809;SDS011;29440;48.208;11.162;2023-07-16T11:17:08;2.05;;;0.60;;
43809;SDS011;29440;48.208;11.162;2023-07-16T11:19:35;2.58;;;0.80;;
43809;SDS011;29440;48.208;11.162;2023-07-16T11:22:02;1.27;;;0.60;;
43809;SDS011;29440;48.208;11.162;2023-07-16T11:24:31;2.55;;;0.80;;
43809;SDS011;29440;48.208;11.162;2023-07-16T11:27:02;1.45;;;0.70;;
43809;SDS011;29440;48.208;11.162;2023-07-16T11:29:33;1.23;;;0.70;;
43809;SDS011;29440;48.208;11.162;2023-07-16T11:31:59;1.08;;;0.70;;
43809;SDS011;29440;48.208;11.162;2023-07-16T11:34:25;1.63;;;0.85;;
43809;SDS011;29440;48.208;11.162;2023-07-16T11:36:50;2.80;;;0.85;;
43809;SDS011;29440;48.208;11.162;2023-07-16T11:39:16;2.95;;;0.60;;
43809;SDS011;29440;48.208;11.162;2023-07-16T11:41:41;3.45;;;0.73;;
43809;SDS011;29440;48.208;11.162;2023-07-16T11:44:07;2.05;;;0.68;;
43809;SDS011;29440;48.208;11.162;2023-07-16T11:46:34;1.50;;;0.70;;
43809;SDS011;29440;48.208;11.162;2023-07-16T11:49:00;1.33;;;0.60;;
43809;SDS011;29440;48.208;11.162;2023-07-16T11:51:26;1.50;;;0.60;;
43809;SDS011;29440;48.208;11.162;2023-07-16T11:53:52;0.80;;;0.50;;
43809;SDS011;29440;48.208;11.162;2023-07-16T11:56:20;2.35;;;0.73;;
43809;SDS011;29440;48.208;11.162;2023-07-16T11:58:46;0.77;;;0.52;;
43809;SDS011;29440;48.208;11.162;2023-07-16T12:01:12;1.48;;;0.80;;
43809;SDS011;29440;48.208;11.162;2023-07-16T12:03:39;1.48;;;0.70;;
43809;SDS011;29440;48.208;11.162;2023-07-16T12:06:05;1.15;;;0.70;;
43809;SDS011;29440;48.208;11.162;2023-07-16T12:08:30;1.27;;;0.70;;
43809;SDS011;29440;48.208;11.162;2023-07-16T12:10:56;1.25;;;0.70;;
43809;SDS011;29440;48.208;11.162;2023-07-16T12:13:21;3.13;;;0.80;;
43809;SDS011;29440;48.208;11.162;2023-07-16T12:15:47;3.10;;;0.80;;
43809;SDS011;29440;48.208;11.162;2023-07-16T12:18:12;2.95;;;0.80;;
43809;SDS011;29440;48.208;11.162;2023-07-16T12:20:38;0.77;;;0.50;;
43809;SDS011;29440;48.208;11.162;2023-07-16T12:23:04;2.88;;;0.80;;
43809;SDS011;29440;48.208;11.162;2023-07-16T12:25:30;1.45;;;0.68;;
43809;SDS011;29440;48.208;11.162;2023-07-16T12:27:56;2.28;;;0.65;;
43809;SDS011;29440;48.208;11.162;2023-07-16T12:30:23;1.50;;;0.80;;
43809;SDS011;29440;48.208;11.162;2023-07-16T12:32:48;0.77;;;0.50;;
43809;SDS011;29440;48.208;11.162;2023-07-16T12:35:14;1.02;;;0.68;;
43809;SDS011;29440;48.208;11.162;2023-07-16T12:37:40;0.80;;;0.50;;
43809;SDS011;29440;48.208;11.162;2023-07-16T12:40:05;1.20;;;0.70;;
43809;SDS011;29440;48.208;11.162;2023-07-16T12:42:31;0.93;;;0.50;;
43809;SDS011;29440;48.208;11.162;2023-07-16T12:44:57;1.40;;;0.55;;
43809;SDS011;29440;48.208;11.162;2023-07-16T12:47:23;1.45;;;0.70;;
43809;SDS011;29440;48.208;11.162;2023-07-16T12:49:48;1.42;;;0.65;;
43809;SDS011;29440;48.208;11.162;2023-07-16T12:52:14;1.90;;;0.65;;
43809;SDS011;29440;48.208;11.162;2023-07-16T12:54:39;1.40;;;0.80;;
43809;SDS011;29440;48.208;11.162;2023-07-16T12:57:05;1.30;;;0.60;;
43809;SDS011;29440;48.208;11.162;2023-07-16T12:59:31;1.77;;;0.75;;
43809;SDS011;29440;48.208;11.162;2023-07-16T13:01:56;1.13;;;0.68;;
43809;SDS011;29440;48.208;11.162;2023-07-16T13:04:22;1.10;;;0.68;;
43809;SDS011;29440;48.208;11.162;2023-07-16T13:06:48;1.00;;;0.60;;
43809;SDS011;29440;48.208;11.162;2023-07-16T13:09:14;2.03;;;0.82;;
43809;SDS011;29440;48.208;11.162;2023-07-16T13:11:40;2.45;;;0.70;;
43809;SDS011;29440;48.208;11.162;2023-07-16T13:14:07;1.73;;;0.70;;
43809;SDS011;29440;48.208;11.162;2023-07-16T13:16:32;1.17;;;0.70;;
43809;SDS011;29440;48.208;11.162;2023-07-16T13:18:58;0.98;;;0.70;;
43809;SDS011;29440;48.208;11.162;2023-07-16T13:21:23;1.58;;;0.90;;
43809;SDS011;29440;48.208;11.162;2023-07-16T13:23:49;1.77;;;0.80;;
43809;SDS011;29440;48.208;11.162;2023-07-16T13:26:14;2.80;;;0.77;;
43809;SDS011;29440;48.208;11.162;2023-07-16T13:28:40;1.25;;;0.80;;
43809;SDS011;29440;48.208;11.162;2023-07-16T13:31:05;1.75;;;0.80;;
43809;SDS011;29440;48.208;11.162;2023-07-16T13:33:31;1.00;;;0.70;;
43809;SDS011;29440;48.208;11.162;2023-07-16T13:35:57;1.40;;;0.80;;
43809;SDS011;29440;48.208;11.162;2023-07-16T13:38:25;0.95;;;0.60;;
43809;SDS011;29440;48.208;11.162;2023-07-16T13:40:50;1.77;;;0.85;;
43809;SDS011;29440;48.208;11.162;2023-07-16T13:43:16;1.63;;;0.80;;
43809;SDS011;29440;48.208;11.162;2023-07-16T13:45:41;1.08;;;0.60;;
43809;SDS011;29440;48.208;11.162;2023-07-16T13:48:07;2.63;;;1.02;;
43809;SDS011;29440;48.208;11.162;2023-07-16T13:50:32;1.65;;;1.00;;
43809;SDS011;29440;48.208;11.162;2023-07-16T13:52:58;1.63;;;0.90;;
43809;SDS011;29440;48.208;11.162;2023-07-16T13:55:26;1.60;;;0.98;;
43809;SDS011;29440;48.208;11.162;2023-07-16T13:57:52;2.92;;;0.75;;
43809;SDS011;29440;48.208;11.162;2023-07-16T14:00:18;2.17;;;0.90;;
43809;SDS011;29440;48.208;11.162;2023-07-16T14:02:45;2.35;;;0.73;;
43809;SDS011;29440;48.208;11.162;2023-07-16T14:05:10;3.45;;;0.70;;
43809;SDS011;29440;48.208;11.162;2023-07-16T14:07:36;2.90;;;0.82;;
43809;SDS011;29440;48.208;11.162;2023-07-16T14:10:01;2.50;;;0.90;;
43809;SDS011;29440;48.208;11.162;2023-07-16T14:12:27;2.60;;;0.60;;
43809;SDS011;29440;48.208;11.162;2023-07-16T14:14:53;1.20;;;0.70;;
43809;SDS011;29440;48.208;11.162;2023-07-16T14:17:19;1.30;;;0.75;;
43809;SDS011;29440;48.208;11.162;2023-07-16T14:19:45;1.00;;;0.73;;
43809;SDS011;29440;48.208;11.162;2023-07-16T14:22:10;1.40;;;0.90;;
43809;SDS011;29440;48.208;11.162;2023-07-16T14:24:38;2.47;;;1.00;;
43809;SDS011;29440;48.208;11.162;2023-07-16T14:27:05;2.20;;;0.90;;
43809;SDS011;29440;48.208;11.162;2023-07-16T14:29:32;4.40;;;0.93;;
43809;SDS011;29440;48.208;11.162;2023-07-16T14:31:57;1.02;;;0.63;;
43809;SDS011;29440;48.208;11.162;2023-07-16T14:34:24;3.20;;;0.80;;
43809;SDS011;29440;48.208;11.162;2023-07-16T14:36:50;0.98;;;0.82;;
43809;SDS011;29440;48.208;11.162;2023-07-16T14:39:16;1.50;;;0.80;;
43809;SDS011;29440;48.208;11.162;2023-07-16T14:41:41;1.35;;;0.75;;
43809;SDS011;29440;48.208;11.162;2023-07-16T14:44:07;1.38;;;0.88;;
43809;SDS011;29440;48.208;11.162;2023-07-16T14:46:32;1.40;;;0.80;;
43809;SDS011;29440;48.208;11.162;2023-07-16T14:48:58;2.28;;;1.20;;